sensor_id;sensor_type;location;lat;lon;timestamp;pressure;altitude;pressure_sealevel;temperature;humidity
36062;BME280;22123;52.412;20.970;2023-07-30T00:01:50;99705.84;;;16.80;100.00
36062;BME280;22123;52.412;20.970;2023-07-30T00:04:15;99734.03;;;16.97;100.00
36062;BME280;22123;52.412;20.970;2023-07-30T00:06:41;99717.16;;;16.77;100.00
36062;BME280;22123;52.412;20.970;2023-07-30T00:09:07;99754.97;;;16.97;100.00
36062;BME280;22123;52.412;20.970;2023-07-30T00:11:33;99736.19;;;16.77;100.00
36062;BME280;22123;52.412;20.970;2023-07-30T00:13:58;99757.19;;;16.88;100.00
36062;BME280;22123;52.412;20.970;2023-07-30T00:16:27;99734.06;;;16.67;100.00
36062;BME280;22123;52.412;20.970;2023-07-30T00:18:53;99736.97;;;16.65;100.00
36062;BME280;22123;52.412;20.970;2023-07-30T00:21:19;99757.25;;;16.81;100.00
36062;BME280;22123;52.412;20.970;2023-07-30T00:23:45;99748.47;;;16.67;100.00
36062;BME280;22123;52.412;20.970;2023-07-30T00:26:10;99762.91;;;16.80;100.00
36062;BME280;22123;52.412;20.970;2023-07-30T00:28:36;99721.59;;;16.59;100.00
36062;BME280;22123;52.412;20.970;2023-07-30T00:31:02;99766.84;;;16.84;100.00
36062;BME280;22123;52.412;20.970;2023-07-30T00:33:28;99746.09;;;16.71;100.00
36062;BME280;22123;52.412;20.970;2023-07-30T00:35:53;99778.47;;;16.91;100.00
36062;BME280;22123;52.412;20.970;2023-07-30T00:38:19;99760.81;;;16.82;100.00
36062;BME280;22123;52.412;20.970;2023-07-30T00:40:45;99759.22;;;16.74;100.00
36062;BME280;22123;52.412;20.970;2023-07-30T00:43:11;99788.75;;;16.89;100.00
36062;BME280;22123;52.412;20.970;2023-07-30T00:45:40;99743.50;;;16.64;100.00
36062;BME280;22123;52.412;20.970;2023-07-30T00:48:12;99743.03;;;16.67;100.00
36062;BME280;22123;52.412;20.970;2023-07-30T00:50:39;99788.13;;;16.87;100.00
36062;BME280;22123;52.412;20.970;2023-07-30T00:53:07;99767.59;;;16.73;100.00
36062;BME280;22123;52.412;20.970;2023-07-30T00:55:34;99764.53;;;16.69;100.00
36062;BME280;22123;52.412;20.970;2023-07-30T00:58:01;99785.28;;;16.82;100.00
36062;BME280;22123;52.412;20.970;2023-07-30T01:00:27;99781.72;;;16.81;100.00
36062;BME280;22123;52.412;20.970;2023-07-30T01:02:53;99789.81;;;16.88;100.00
36062;BME280;22123;52.412;20.970;2023-07-30T01:05:19;99798.72;;;16.95;100.00
36062;BME280;22123;52.412;20.970;2023-07-30T01:07:45;99766.94;;;16.77;100.00
36062;BME280;22123;52.412;20.970;2023-07-30T01:10:11;99802.16;;;17.02;100.00
36062;BME280;22123;52.412;20.970;2023-07-30T01:12:37;99792.69;;;16.93;100.00
36062;BME280;22123;52.412;20.970;2023-07-30T01:15:03;99803.38;;;17.07;100.00
36062;BME280;22123;52.412;20.970;2023-07-30T01:17:29;99804.72;;;16.97;100.00
36062;BME280;22123;52.412;20.970;2023-07-30T01:19:55;99807.53;;;17.09;100.00
36062;BME280;22123;52.412;20.970;2023-07-30T01:22:22;99790.94;;;16.99;100.00
36062;BME280;22123;52.412;20.970;2023-07-30T01:24:49;99794.00;;;17.02;100.00
36062;BME280;22123;52.412;20.970;2023-07-30T01:27:38;99778.47;;;16.91;100.00
36062;BME280;22123;52.412;20.970;2023-07-30T01:30:08;99809.53;;;17.14;100.00
36062;BME280;22123;52.412;20.970;2023-07-30T01:32:37;99785.69;;;16.97;100.00
36062;BME280;22123;52.412;20.970;2023-07-30T01:35:04;99792.09;;;17.03;100.00
36062;BME280;22123;52.412;20.970;2023-07-30T01:37:33;99797.78;;;17.01;100.00
36062;BME280;22123;52.412;20.970;2023-07-30T01:40:00;99799.13;;;17.11;100.00
36062;BME280;22123;52.412;20.970;2023-07-30T01:42:30;99776.13;;;16.95;100.00
36062;BME280;22123;52.412;20.970;2023-07-30T01:44:55;99783.22;;;16.96;100.00
36062;BME280;22123;52.412;20.970;2023-07-30T01:47:21;99808.72;;;17.13;100.00
36062;BME280;22123;52.412;20.970;2023-07-30T01:49:47;99784.81;;;17.03;100.00
36062;BME280;22123;52.412;20.970;2023-07-30T01:52:13;99780.25;;;16.97;100.00
36062;BME280;22123;52.412;20.970;2023-07-30T01:54:39;99804.69;;;17.16;100.00
36062;BME280;22123;52.412;20.970;2023-07-30T01:57:05;99812.59;;;17.17;100.00
36062;BME280;22123;52.412;20.970;2023-07-30T01:59:30;99777.78;;;16.96;100.00
36062;BME280;22123;52.412;20.970;2023-07-30T02:01:56;99813.22;;;17.19;100.00
36062;BME280;22123;52.412;20.970;2023-07-30T02:04:22;99776.06;;;16.83;100.00
36062;BME280;22123;52.412;20.970;2023-07-30T02:06:48;99808.34;;;17.10;100.00
36062;BME280;22123;52.412;20.970;2023-07-30T02:09:14;99785.13;;;16.95;100.00
36062;BME280;22123;52.412;20.970;2023-07-30T02:11:40;99820.88;;;17.11;100.00
36062;BME280;22123;52.412;20.970;2023-07-30T02:14:05;99780.66;;;16.82;100.00
36062;BME280;22123;52.412;20.970;2023-07-30T02:16:31;99801.69;;;17.06;100.00
36062;BME280;22123;52.412;20.970;2023-07-30T02:18:57;99798.34;;;16.92;100.00
36062;BME280;22123;52.412;20.970;2023-07-30T02:21:23;99800.00;;;16.93;100.00
36062;BME280;22123;52.412;20.970;2023-07-30T02:23:50;99822.72;;;16.98;100.00
36062;BME280;22123;52.412;20.970;2023-07-30T02:26:16;99839.44;;;17.14;100.00
36062;BME280;22123;52.412;20.970;2023-07-30T02:28:42;99815.03;;;16.95;100.00
36062;BME280;22123;52.412;20.970;2023-07-30T02:31:07;99838.41;;;17.15;100.00
36062;BME280;22123;52.412;20.970;2023-07-30T02:33:33;99817.16;;;16.93;100.00
36062;BME280;22123;52.412;20.970;2023-07-30T02:35:59;99813.22;;;16.89;100.00
36062;BME280;22123;52.412;20.970;2023-07-30T02:38:25;99844.97;;;17.07;100.00
36062;BME280;22123;52.412;20.970;2023-07-30T02:40:51;99814.94;;;16.83;100.00
36062;BME280;22123;52.412;20.970;2023-07-30T02:43:16;99841.91;;;17.03;100.00
36062;BME280;22123;52.412;20.970;2023-07-30T02:45:42;99816.19;;;16.88;100.00
36062;BME280;22123;52.412;20.970;2023-07-30T02:48:08;99843.34;;;17.06;100.00
36062;BME280;22123;52.412;20.970;2023-07-30T02:50:34;99819.75;;;16.81;100.00
36062;BME280;22123;52.412;20.970;2023-07-30T02:52:59;99849.44;;;17.01;100.00
36062;BME280;22123;52.412;20.970;2023-07-30T02:55:25;99811.03;;;16.79;100.00
36062;BME280;22123;52.412;20.970;2023-07-30T02:57:51;99845.75;;;16.96;100.00
36062;BME280;22123;52.412;20.970;2023-07-30T03:00:17;99829.00;;;16.80;100.00
36062;BME280;22123;52.412;20.970;2023-07-30T03:02:43;99805.75;;;16.66;100.00
36062;BME280;22123;52.412;20.970;2023-07-30T03:05:08;99853.47;;;16.99;100.00
36062;BME280;22123;52.412;20.970;2023-07-30T03:07:35;99842.78;;;16.97;100.00
36062;BME280;22123;52.412;20.970;2023-07-30T03:10:01;99827.25;;;16.86;100.00
36062;BME280;22123;52.412;20.970;2023-07-30T03:12:26;99845.97;;;16.94;100.00
36062;BME280;22123;52.412;20.970;2023-07-30T03:14:52;99811.25;;;16.78;100.00
36062;BME280;22123;52.412;20.970;2023-07-30T03:17:18;99844.00;;;17.01;100.00
36062;BME280;22123;52.412;20.970;2023-07-30T03:19:44;99830.34;;;16.90;100.00
36062;BME280;22123;52.412;20.970;2023-07-30T03:22:09;99858.78;;;17.06;100.00
36062;BME280;22123;52.412;20.970;2023-07-30T03:24:35;99826.59;;;16.91;100.00
36062;BME280;22123;52.412;20.970;2023-07-30T03:27:01;99855.03;;;17.07;100.00
36062;BME280;22123;52.412;20.970;2023-07-30T03:29:27;99826.28;;;16.80;100.00
36062;BME280;22123;52.412;20.970;2023-07-30T03:31:53;99821.31;;;16.77;100.00
36062;BME280;22123;52.412;20.970;2023-07-30T03:34:18;99867.19;;;17.04;100.00
36062;BME280;22123;52.412;20.970;2023-07-30T03:36:44;99854.28;;;16.99;100.00
36062;BME280;22123;52.412;20.970;2023-07-30T03:39:10;99866.50;;;17.09;100.00
36062;BME280;22123;52.412;20.970;2023-07-30T03:41:36;99832.06;;;16.84;100.00
36062;BME280;22123;52.412;20.970;2023-07-30T03:44:01;99864.63;;;17.09;100.00
36062;BME280;22123;52.412;20.970;2023-07-30T03:46:27;99829.53;;;16.89;100.00
36062;BME280;22123;52.412;20.970;2023-07-30T03:48:53;99861.16;;;17.02;100.00
36062;BME280;22123;52.412;20.970;2023-07-30T03:51:19;99854.88;;;17.01;100.00
36062;BME280;22123;52.412;20.970;2023-07-30T03:53:44;99868.00;;;17.04;100.00
36062;BME280;22123;52.412;20.970;2023-07-30T03:56:10;99844.38;;;16.86;100.00
36062;BME280;22123;52.412;20.970;2023-07-30T03:58:36;99878.69;;;17.06;100.00
36062;BME280;22123;52.412;20.970;2023-07-30T04:01:02;99866.97;;;17.06;100.00
36062;BME280;22123;52.412;20.970;2023-07-30T04:03:27;99880.94;;;17.09;100.00
36062;BME280;22123;52.412;20.970;2023-07-30T04:05:53;99862.44;;;16.99;100.00
36062;BME280;22123;52.412;20.970;2023-07-30T04:08:19;99866.97;;;17.06;100.00
36062;BME280;22123;52.412;20.970;2023-07-30T04:10:45;99881.53;;;17.11;100.00
36062;BME280;22123;52.412;20.970;2023-07-30T04:13:11;99876.56;;;17.08;100.00
36062;BME280;22123;52.412;20.970;2023-07-30T04:15:36;99855.97;;;17.00;100.00
36062;BME280;22123;52.412;20.970;2023-07-30T04:18:02;99880.38;;;17.19;100.00
36062;BME280;22123;52.412;20.970;2023-07-30T04:20:28;99844.84;;;17.02;100.00
36062;BME280;22123;52.412;20.970;2023-07-30T04:22:54;99890.69;;;17.29;100.00
36062;BME280;22123;52.412;20.970;2023-07-30T04:25:19;99866.88;;;17.12;100.00
36062;BME280;22123;52.412;20.970;2023-07-30T04:27:45;99899.38;;;17.37;100.00
36062;BME280;22123;52.412;20.970;2023-07-30T04:30:11;99862.13;;;17.08;100.00
36062;BME280;22123;52.412;20.970;2023-07-30T04:32:37;99886.44;;;17.21;100.00
36062;BME280;22123;52.412;20.970;2023-07-30T04:35:03;99923.28;;;17.35;100.00
36062;BME280;22123;52.412;20.970;2023-07-30T04:37:29;99908.31;;;17.26;100.00
36062;BME280;22123;52.412;20.970;2023-07-30T04:39:54;99932.00;;;17.37;100.00
36062;BME280;22123;52.412;20.970;2023-07-30T04:42:20;99911.94;;;17.20;100.00
36062;BME280;22123;52.412;20.970;2023-07-30T04:44:46;99915.88;;;17.24;100.00
36062;BME280;22123;52.412;20.970;2023-07-30T04:47:12;99925.00;;;17.30;100.00
36062;BME280;22123;52.412;20.970;2023-07-30T04:49:38;99938.97;;;17.33;100.00
36062;BME280;22123;52.412;20.970;2023-07-30T04:52:03;99912.25;;;17.12;100.00
36062;BME280;22123;52.412;20.970;2023-07-30T04:54:29;99898.47;;;16.95;100.00
36062;BME280;22123;52.412;20.970;2023-07-30T04:56:55;99947.81;;;17.29;100.00
36062;BME280;22123;52.412;20.970;2023-07-30T04:59:21;99952.22;;;17.30;100.00
36062;BME280;22123;52.412;20.970;2023-07-30T05:01:47;99938.19;;;17.14;100.00
36062;BME280;22123;52.412;20.970;2023-07-30T05:04:13;99937.81;;;17.11;100.00
36062;BME280;22123;52.412;20.970;2023-07-30T05:06:38;99927.25;;;17.02;100.00
36062;BME280;22123;52.412;20.970;2023-07-30T05:09:04;99955.47;;;17.20;100.00
36062;BME280;22123;52.412;20.970;2023-07-30T05:11:30;99945.41;;;17.20;100.00
36062;BME280;22123;52.412;20.970;2023-07-30T05:13:56;99926.53;;;17.07;100.00
36062;BME280;22123;52.412;20.970;2023-07-30T05:16:22;99923.69;;;17.02;100.00
36062;BME280;22123;52.412;20.970;2023-07-30T05:18:48;99957.50;;;17.25;100.00
36062;BME280;22123;52.412;20.970;2023-07-30T05:21:13;99929.44;;;17.12;100.00
36062;BME280;22123;52.412;20.970;2023-07-30T05:23:39;99916.66;;;17.13;100.00
36062;BME280;22123;52.412;20.970;2023-07-30T05:26:05;99957.72;;;17.42;100.00
36062;BME280;22123;52.412;20.970;2023-07-30T05:28:31;99928.91;;;17.22;100.00
36062;BME280;22123;52.412;20.970;2023-07-30T05:30:57;99921.09;;;17.26;100.00
36062;BME280;22123;52.412;20.970;2023-07-30T05:33:22;99959.03;;;17.51;100.00
36062;BME280;22123;52.412;20.970;2023-07-30T05:35:48;99932.00;;;17.37;100.00
36062;BME280;22123;52.412;20.970;2023-07-30T05:38:14;99957.53;;;17.55;100.00
36062;BME280;22123;52.412;20.970;2023-07-30T05:40:41;99977.31;;;17.62;100.00
36062;BME280;22123;52.412;20.970;2023-07-30T05:43:07;99919.41;;;17.25;100.00
36062;BME280;22123;52.412;20.970;2023-07-30T05:45:34;99977.78;;;17.59;100.00
36062;BME280;22123;52.412;20.970;2023-07-30T05:47:59;99946.25;;;17.40;100.00
36062;BME280;22123;52.412;20.970;2023-07-30T05:50:25;99968.28;;;17.50;100.00
36062;BME280;22123;52.412;20.970;2023-07-30T05:52:51;100005.16;;;17.64;100.00
36062;BME280;22123;52.412;20.970;2023-07-30T05:55:17;99962.84;;;17.50;100.00
36062;BME280;22123;52.412;20.970;2023-07-30T05:57:43;99967.00;;;17.52;100.00
36062;BME280;22123;52.412;20.970;2023-07-30T06:00:08;100002.81;;;17.80;100.00
36062;BME280;22123;52.412;20.970;2023-07-30T06:02:34;99978.41;;;17.61;100.00
36062;BME280;22123;52.412;20.970;2023-07-30T06:05:00;99977.78;;;17.59;100.00
36062;BME280;22123;52.412;20.970;2023-07-30T06:07:26;100014.56;;;17.80;100.00
36062;BME280;22123;52.412;20.970;2023-07-30T06:09:52;99978.75;;;17.65;100.00
36062;BME280;22123;52.412;20.970;2023-07-30T06:12:18;99992.28;;;17.71;100.00
36062;BME280;22123;52.412;20.970;2023-07-30T06:14:44;99989.69;;;17.77;100.00
36062;BME280;22123;52.412;20.970;2023-07-30T06:17:10;99976.28;;;17.75;100.00
36062;BME280;22123;52.412;20.970;2023-07-30T06:19:35;100018.91;;;18.00;100.00
36062;BME280;22123;52.412;20.970;2023-07-30T06:22:01;99997.00;;;17.95;100.00
36062;BME280;22123;52.412;20.970;2023-07-30T06:24:27;99995.69;;;17.97;100.00
36062;BME280;22123;52.412;20.970;2023-07-30T06:26:53;100013.38;;;18.06;100.00
36062;BME280;22123;52.412;20.970;2023-07-30T06:29:19;99966.09;;;17.70;100.00
36062;BME280;22123;52.412;20.970;2023-07-30T06:31:44;100020.81;;;17.99;100.00
36062;BME280;22123;52.412;20.970;2023-07-30T06:34:10;99978.69;;;17.83;100.00
36062;BME280;22123;52.412;20.970;2023-07-30T06:36:36;99995.03;;;17.83;100.00
36062;BME280;22123;52.412;20.970;2023-07-30T06:39:02;99994.63;;;17.98;100.00
36062;BME280;22123;52.412;20.970;2023-07-30T06:41:28;100020.13;;;18.16;100.00
36062;BME280;22123;52.412;20.970;2023-07-30T06:43:54;100004.50;;;18.11;100.00
36062;BME280;22123;52.412;20.970;2023-07-30T06:46:20;99998.81;;;18.13;100.00
36062;BME280;22123;52.412;20.970;2023-07-30T06:48:46;100030.72;;;18.36;100.00
36062;BME280;22123;52.412;20.970;2023-07-30T06:51:12;100030.00;;;18.40;100.00
36062;BME280;22123;52.412;20.970;2023-07-30T06:53:38;100008.19;;;18.29;100.00
36062;BME280;22123;52.412;20.970;2023-07-30T06:56:04;100005.38;;;18.23;100.00
36062;BME280;22123;52.412;20.970;2023-07-30T06:58:30;100021.72;;;18.35;100.00
36062;BME280;22123;52.412;20.970;2023-07-30T07:00:55;100001.06;;;18.28;100.00
36062;BME280;22123;52.412;20.970;2023-07-30T07:03:21;99994.34;;;18.30;100.00
36062;BME280;22123;52.412;20.970;2023-07-30T07:05:57;99990.47;;;18.38;100.00
36062;BME280;22123;52.412;20.970;2023-07-30T07:08:23;100030.28;;;18.63;100.00
36062;BME280;22123;52.412;20.970;2023-07-30T07:10:49;100004.09;;;18.38;100.00
36062;BME280;22123;52.412;20.970;2023-07-30T07:13:15;100015.56;;;18.40;100.00
36062;BME280;22123;52.412;20.970;2023-07-30T07:15:42;100007.72;;;18.43;100.00
36062;BME280;22123;52.412;20.970;2023-07-30T07:18:08;100023.41;;;18.60;100.00
36062;BME280;22123;52.412;20.970;2023-07-30T07:20:34;99998.88;;;18.60;100.00
36062;BME280;22123;52.412;20.970;2023-07-30T07:23:00;100043.84;;;19.05;100.00
36062;BME280;22123;52.412;20.970;2023-07-30T07:25:26;100045.63;;;18.99;100.00
36062;BME280;22123;52.412;20.970;2023-07-30T07:27:52;100018.78;;;18.72;100.00
36062;BME280;22123;52.412;20.970;2023-07-30T07:30:18;100034.22;;;18.79;100.00
36062;BME280;22123;52.412;20.970;2023-07-30T07:32:43;100015.47;;;18.82;100.00
36062;BME280;22123;52.412;20.970;2023-07-30T07:35:09;100028.75;;;19.02;100.00
36062;BME280;22123;52.412;20.970;2023-07-30T07:37:35;100028.16;;;19.12;100.00
36062;BME280;22123;52.412;20.970;2023-07-30T07:40:02;100038.56;;;19.27;100.00
36062;BME280;22123;52.412;20.970;2023-07-30T07:42:29;100009.16;;;19.17;100.00
36062;BME280;22123;52.412;20.970;2023-07-30T07:44:55;100032.63;;;19.30;100.00
36062;BME280;22123;52.412;20.970;2023-07-30T07:47:20;100016.16;;;19.13;100.00
36062;BME280;22123;52.412;20.970;2023-07-30T07:49:46;100047.09;;;19.42;100.00
36062;BME280;22123;52.412;20.970;2023-07-30T07:52:12;100026.97;;;19.20;100.00
36062;BME280;22123;52.412;20.970;2023-07-30T07:54:38;100033.53;;;19.48;100.00
36062;BME280;22123;52.412;20.970;2023-07-30T07:57:04;100039.41;;;19.80;100.00
36062;BME280;22123;52.412;20.970;2023-07-30T07:59:30;100025.44;;;19.93;100.00
36062;BME280;22123;52.412;20.970;2023-07-30T08:01:56;100034.34;;;20.18;100.00
36062;BME280;22123;52.412;20.970;2023-07-30T08:04:22;100030.13;;;20.27;100.00
36062;BME280;22123;52.412;20.970;2023-07-30T08:06:48;100051.69;;;20.57;100.00
36062;BME280;22123;52.412;20.970;2023-07-30T08:09:14;100042.81;;;20.84;100.00
36062;BME280;22123;52.412;20.970;2023-07-30T08:11:39;100051.09;;;21.06;100.00
36062;BME280;22123;52.412;20.970;2023-07-30T08:14:05;100045.13;;;21.09;100.00
36062;BME280;22123;52.412;20.970;2023-07-30T08:16:31;100042.72;;;21.35;100.00
36062;BME280;22123;52.412;20.970;2023-07-30T08:18:57;100048.13;;;21.30;100.00
36062;BME280;22123;52.412;20.970;2023-07-30T08:21:23;100047.16;;;21.19;100.00
36062;BME280;22123;52.412;20.970;2023-07-30T08:23:49;100049.78;;;21.31;100.00
36062;BME280;22123;52.412;20.970;2023-07-30T08:26:15;100048.75;;;21.37;100.00
36062;BME280;22123;52.412;20.970;2023-07-30T08:28:40;100035.63;;;21.17;100.00
36062;BME280;22123;52.412;20.970;2023-07-30T08:31:06;100052.50;;;21.09;100.00
36062;BME280;22123;52.412;20.970;2023-07-30T08:33:32;100055.41;;;21.02;100.00
36062;BME280;22123;52.412;20.970;2023-07-30T08:35:59;100068.50;;;21.00;100.00
36062;BME280;22123;52.412;20.970;2023-07-30T08:38:25;100053.59;;;20.91;100.00
36062;BME280;22123;52.412;20.970;2023-07-30T08:40:51;100050.81;;;20.86;100.00
36062;BME280;22123;52.412;20.970;2023-07-30T08:43:20;100061.44;;;21.04;100.00
36062;BME280;22123;52.412;20.970;2023-07-30T08:45:45;100060.66;;;21.26;100.00
36062;BME280;22123;52.412;20.970;2023-07-30T08:48:11;100056.63;;;21.11;100.00
36062;BME280;22123;52.412;20.970;2023-07-30T08:50:37;100077.47;;;21.34;100.00
36062;BME280;22123;52.412;20.970;2023-07-30T08:53:06;100051.75;;;21.35;100.00
36062;BME280;22123;52.412;20.970;2023-07-30T08:55:34;100032.34;;;21.59;100.00
36062;BME280;22123;52.412;20.970;2023-07-30T08:58:04;100048.16;;;21.74;100.00
36062;BME280;22123;52.412;20.970;2023-07-30T09:00:33;100064.50;;;21.91;100.00
36062;BME280;22123;52.412;20.970;2023-07-30T09:03:03;100066.09;;;21.65;100.00
36062;BME280;22123;52.412;20.970;2023-07-30T09:05:30;100083.03;;;21.84;100.00
36062;BME280;22123;52.412;20.970;2023-07-30T09:07:57;100086.06;;;21.60;100.00
36062;BME280;22123;52.412;20.970;2023-07-30T09:10:23;100058.59;;;21.55;100.00
36062;BME280;22123;52.412;20.970;2023-07-30T09:12:54;100056.53;;;21.45;100.00
36062;BME280;22123;52.412;20.970;2023-07-30T09:15:29;100035.56;;;21.51;100.00
36062;BME280;22123;52.412;20.970;2023-07-30T09:17:55;100073.81;;;21.68;100.00
36062;BME280;22123;52.412;20.970;2023-07-30T09:20:21;100057.78;;;21.54;100.00
36062;BME280;22123;52.412;20.970;2023-07-30T09:22:47;100071.84;;;21.63;100.00
36062;BME280;22123;52.412;20.970;2023-07-30T09:25:13;100063.34;;;21.43;100.00
36062;BME280;22123;52.412;20.970;2023-07-30T09:27:39;100095.31;;;21.37;100.00
36062;BME280;22123;52.412;20.970;2023-07-30T09:30:05;100072.19;;;21.28;100.00
36062;BME280;22123;52.412;20.970;2023-07-30T09:32:32;100095.31;;;21.37;100.00
36062;BME280;22123;52.412;20.970;2023-07-30T09:35:09;100078.63;;;21.39;100.00
36062;BME280;22123;52.412;20.970;2023-07-30T09:37:37;100091.91;;;21.69;100.00
36062;BME280;22123;52.412;20.970;2023-07-30T09:40:07;100086.44;;;21.69;100.00
36062;BME280;22123;52.412;20.970;2023-07-30T09:42:35;100096.09;;;21.77;100.00
36062;BME280;22123;52.412;20.970;2023-07-30T09:45:01;100075.72;;;21.67;100.00
36062;BME280;22123;52.412;20.970;2023-07-30T09:47:27;100089.47;;;21.95;100.00
36062;BME280;22123;52.412;20.970;2023-07-30T09:49:55;100069.41;;;21.89;100.00
36062;BME280;22123;52.412;20.970;2023-07-30T09:52:21;100043.13;;;21.66;100.00
36062;BME280;22123;52.412;20.970;2023-07-30T09:54:49;100080.28;;;21.84;100.00
36062;BME280;22123;52.412;20.970;2023-07-30T09:57:15;100082.16;;;21.78;100.00
36062;BME280;22123;52.412;20.970;2023-07-30T09:59:41;100084.59;;;21.75;100.00
36062;BME280;22123;52.412;20.970;2023-07-30T10:02:08;100097.47;;;21.74;100.00
36062;BME280;22123;52.412;20.970;2023-07-30T10:04:41;100078.00;;;21.53;100.00
36062;BME280;22123;52.412;20.970;2023-07-30T10:07:12;100102.19;;;21.57;100.00
36062;BME280;22123;52.412;20.970;2023-07-30T10:09:42;100103.03;;;21.62;100.00
36062;BME280;22123;52.412;20.970;2023-07-30T10:12:15;100071.97;;;21.51;100.00
36062;BME280;22123;52.412;20.970;2023-07-30T10:14:41;100109.53;;;21.78;100.00
36062;BME280;22123;52.412;20.970;2023-07-30T10:17:10;100095.50;;;21.97;100.00
36062;BME280;22123;52.412;20.970;2023-07-30T10:19:36;100071.69;;;22.24;100.00
36062;BME280;22123;52.412;20.970;2023-07-30T10:24:40;100101.59;;;22.86;100.00
36062;BME280;22123;52.412;20.970;2023-07-30T10:27:08;100084.00;;;23.19;100.00
36062;BME280;22123;52.412;20.970;2023-07-30T10:29:35;100077.38;;;23.68;100.00
36062;BME280;22123;52.412;20.970;2023-07-30T10:32:01;100079.13;;;23.95;100.00
36062;BME280;22123;52.412;20.970;2023-07-30T10:34:44;100083.06;;;24.45;100.00
36062;BME280;22123;52.412;20.970;2023-07-30T10:37:10;100072.94;;;25.73;100.00
36062;BME280;22123;52.412;20.970;2023-07-30T10:39:36;100048.00;;;26.38;100.00
36062;BME280;22123;52.412;20.970;2023-07-30T10:42:02;100061.03;;;27.26;100.00
36062;BME280;22123;52.412;20.970;2023-07-30T10:44:31;100054.66;;;27.93;100.00
36062;BME280;22123;52.412;20.970;2023-07-30T10:46:59;100054.31;;;29.45;100.00
36062;BME280;22123;52.412;20.970;2023-07-30T10:49:25;100056.91;;;30.06;100.00
36062;BME280;22123;52.412;20.970;2023-07-30T10:51:52;100045.31;;;30.04;100.00
36062;BME280;22123;52.412;20.970;2023-07-30T10:54:18;100031.31;;;29.45;100.00
36062;BME280;22123;52.412;20.970;2023-07-30T10:56:44;100050.06;;;29.76;100.00
36062;BME280;22123;52.412;20.970;2023-07-30T10:59:11;100047.31;;;30.35;100.00
36062;BME280;22123;52.412;20.970;2023-07-30T11:01:39;100013.16;;;30.80;100.00
36062;BME280;22123;52.412;20.970;2023-07-30T11:04:14;100028.88;;;31.16;100.00
36062;BME280;22123;52.412;20.970;2023-07-30T11:06:45;100032.63;;;31.78;100.00
36062;BME280;22123;52.412;20.970;2023-07-30T11:09:18;100043.81;;;32.30;100.00
36062;BME280;22123;52.412;20.970;2023-07-30T11:11:44;100052.81;;;32.36;100.00
36062;BME280;22123;52.412;20.970;2023-07-30T11:14:16;100035.44;;;32.39;100.00
36062;BME280;22123;52.412;20.970;2023-07-30T11:16:52;100000.06;;;31.69;100.00
36062;BME280;22123;52.412;20.970;2023-07-30T11:19:19;100011.91;;;31.26;100.00
36062;BME280;22123;52.412;20.970;2023-07-30T11:21:50;100010.91;;;31.22;100.00
36062;BME280;22123;52.412;20.970;2023-07-30T11:24:16;100014.50;;;31.31;100.00
36062;BME280;22123;52.412;20.970;2023-07-30T11:26:42;100007.16;;;31.27;100.00
36062;BME280;22123;52.412;20.970;2023-07-30T11:29:19;100007.31;;;30.59;100.00
36062;BME280;22123;52.412;20.970;2023-07-30T11:31:46;100017.38;;;30.23;100.00
36062;BME280;22123;52.412;20.970;2023-07-30T11:34:15;99991.66;;;29.58;100.00
36062;BME280;22123;52.412;20.970;2023-07-30T11:36:42;100007.19;;;29.45;100.00
36062;BME280;22123;52.412;20.970;2023-07-30T11:39:11;99989.88;;;29.26;100.00
36062;BME280;22123;52.412;20.970;2023-07-30T11:41:37;100024.25;;;29.25;100.00
36062;BME280;22123;52.412;20.970;2023-07-30T11:44:03;100017.13;;;29.05;100.00
36062;BME280;22123;52.412;20.970;2023-07-30T11:46:29;99991.81;;;28.51;100.00
36062;BME280;22123;52.412;20.970;2023-07-30T11:49:11;100017.00;;;27.97;100.00
36062;BME280;22123;52.412;20.970;2023-07-30T11:51:37;100019.72;;;27.59;100.00
36062;BME280;22123;52.412;20.970;2023-07-30T11:54:03;100001.06;;;27.02;100.00
36062;BME280;22123;52.412;20.970;2023-07-30T11:56:35;100021.09;;;26.60;100.00
36062;BME280;22123;52.412;20.970;2023-07-30T11:59:07;99979.63;;;26.01;100.00
36062;BME280;22123;52.412;20.970;2023-07-30T12:01:35;99987.56;;;25.68;100.00
36062;BME280;22123;52.412;20.970;2023-07-30T12:04:05;99950.88;;;25.12;100.00
36062;BME280;22123;52.412;20.970;2023-07-30T12:09:18;99958.72;;;24.74;100.00
36062;BME280;22123;52.412;20.970;2023-07-30T12:12:04;100014.56;;;24.80;100.00
36062;BME280;22123;52.412;20.970;2023-07-30T12:14:44;99996.69;;;24.57;100.00
36062;BME280;22123;52.412;20.970;2023-07-30T12:17:10;100015.13;;;24.61;100.00
36062;BME280;22123;52.412;20.970;2023-07-30T12:19:36;99975.25;;;24.38;100.00
36062;BME280;22123;52.412;20.970;2023-07-30T12:22:02;100012.38;;;24.51;100.00
36062;BME280;22123;52.412;20.970;2023-07-30T12:24:28;99965.88;;;24.08;100.00
36062;BME280;22123;52.412;20.970;2023-07-30T12:26:54;99985.13;;;23.93;100.00
36062;BME280;22123;52.412;20.970;2023-07-30T12:29:29;99999.34;;;23.79;100.00
36062;BME280;22123;52.412;20.970;2023-07-30T12:31:55;99989.97;;;23.60;100.00
36062;BME280;22123;52.412;20.970;2023-07-30T12:34:22;99990.72;;;23.40;100.00
36062;BME280;22123;52.412;20.970;2023-07-30T12:36:48;99999.78;;;23.35;100.00
36062;BME280;22123;52.412;20.970;2023-07-30T12:39:14;100022.03;;;23.34;100.00